Thunderstorms From: 15-12-2017 06:00 Until: 16-12-2017 06:00 warning for: Thunderstorms Level: Yellow info button

Although rather usual in this region, locally or potentially dangerous phenomena are expected. (such as local winds, summer thunderstorms, rising streams or high waves) Be aware and pay attention to the latest weather updates, especially if you carry out activities exposed to weather or close to a stream or shoreline. 


Meteo18 Weather Cam more information Meteo18 Weather Cam


warning for Thunderstorms more information blitzortung!


Rain radar more information rain snow radar


Visit our other weather sites:

Template documentation
and downloads

And another site



Weather Underground History page Text

Daily Summary for November 3, 2016 Units:  Metric    English   Both
« Previous Day
Next Day »
Daily Weekly Monthly Yearly Custom
  High: Low: Average:
Temperature: 11.2 °C 2.5 °C 6.2 °C
Dew Point: 4.7 °C 1.3 °C 2.9 °C
Humidity: 94 % 55 % 81 %
Wind Speed: 12.9 km/h 0.0 km/h 3 km/h
Wind Gust: 20.9 km/h - -
Wind:- - East
Pressure: 1023.9 hPa 1019.5 hPa -
Precipitation: 0.0 mm    
Historical Graphs
 
 
Tabular Data for November 3, 2016
Time Temperature Dew Point Pressure Wind Wind Speed Wind Gust Humidity Rainfall Rate (Hourly)
00:02 5.7 °C 4.7 °C 1023.6 hPa Calm   4.8 km/h 93 % 0.0 mm
00:07 5.7 °C 4.7 °C 1023.6 hPa Calm   3.2 km/h 93 % 0.0 mm
00:12 5.7 °C 4.7 °C 1023.9 hPa NNE 1.6 km/h 3.2 km/h 93 % 0.0 mm
00:17 5.6 °C 4.4 °C 1023.9 hPa Calm   3.2 km/h 92 % 0.0 mm
00:22 5.6 °C 4.4 °C 1023.9 hPa Calm   3.2 km/h 92 % 0.0 mm
00:27 5.6 °C 4.2 °C 1023.9 hPa Calm   3.2 km/h 91 % 0.0 mm
00:32 5.6 °C 4.1 °C 1023.9 hPa North 3.2 km/h 4.8 km/h 90 % 0.0 mm
00:42 5.8 °C 4.3 °C 1023.9 hPa NNW 4.8 km/h 6.4 km/h 90 % 0.0 mm
00:47 5.8 °C 4.1 °C 1023.9 hPa Calm   4.8 km/h 89 % 0.0 mm
00:52 5.7 °C 4.0 °C 1023.9 hPa Calm   4.8 km/h 89 % 0.0 mm
00:57 5.7 °C 4.0 °C 1023.6 hPa Calm   4.8 km/h 89 % 0.0 mm
01:02 5.7 °C 4.0 °C 1023.6 hPa North 1.6 km/h 6.4 km/h 89 % 0.0 mm
01:07 5.7 °C 4.0 °C 1023.6 hPa Calm   6.4 km/h 89 % 0.0 mm
01:12 5.6 °C 3.9 °C 1023.6 hPa NE 1.6 km/h 6.4 km/h 89 % 0.0 mm
01:17 5.4 °C 3.7 °C 1023.6 hPa North 3.2 km/h 4.8 km/h 89 % 0.0 mm
01:22 5.3 °C 3.8 °C 1023.9 hPa Calm   4.8 km/h 90 % 0.0 mm
01:27 5.3 °C 4.0 °C 1023.6 hPa North 3.2 km/h 4.8 km/h 91 % 0.0 mm
01:32 5.5 °C 4.1 °C 1023.9 hPa Calm   4.8 km/h 91 % 0.0 mm
01:42 5.7 °C 4.2 °C 1023.6 hPa NNE 1.6 km/h 8.0 km/h 90 % 0.0 mm
01:47 5.7 °C 4.2 °C 1023.6 hPa NNE 1.6 km/h 6.4 km/h 90 % 0.0 mm
01:57 5.7 °C 4.2 °C 1023.6 hPa NE 1.6 km/h 4.8 km/h 90 % 0.0 mm
02:02 5.6 °C 4.1 °C 1023.6 hPa NNW 4.8 km/h 4.8 km/h 90 % 0.0 mm
02:07 5.5 °C 4.0 °C 1023.6 hPa ENE 3.2 km/h 4.8 km/h 90 % 0.0 mm
02:12 5.5 °C 4.0 °C 1023.2 hPa North 4.8 km/h 6.4 km/h 90 % 0.0 mm
02:17 5.4 °C 3.9 °C 1023.6 hPa Calm   6.4 km/h 90 % 0.0 mm
02:27 5.2 °C 3.7 °C 1023.6 hPa NNE 3.2 km/h 4.8 km/h 90 % 0.0 mm
02:32 5.1 °C 3.6 °C 1023.6 hPa Calm   6.4 km/h 90 % 0.0 mm
02:37 5.0 °C 3.5 °C 1023.6 hPa North 3.2 km/h 6.4 km/h 90 % 0.0 mm
02:42 4.9 °C 3.4 °C 1023.6 hPa North 3.2 km/h 6.4 km/h 90 % 0.0 mm
02:47 4.8 °C 3.3 °C 1023.2 hPa North 4.8 km/h 6.4 km/h 90 % 0.0 mm
02:52 4.8 °C 3.3 °C 1023.6 hPa NNW 1.6 km/h 6.4 km/h 90 % 0.0 mm
02:57 4.7 °C 3.2 °C 1023.6 hPa Calm   6.4 km/h 90 % 0.0 mm
03:02 4.7 °C 3.2 °C 1023.6 hPa NNE 1.6 km/h 8.0 km/h 90 % 0.0 mm
03:12 4.4 °C 2.9 °C 1023.2 hPa Calm   6.4 km/h 90 % 0.0 mm
03:17 4.3 °C 2.8 °C 1023.2 hPa NNW 1.6 km/h 6.4 km/h 90 % 0.0 mm
03:22 4.3 °C 2.8 °C 1023.6 hPa North 3.2 km/h 6.4 km/h 90 % 0.0 mm
03:27 4.2 °C 2.7 °C 1023.6 hPa North 4.8 km/h 6.4 km/h 90 % 0.0 mm
03:32 4.2 °C 2.7 °C 1023.2 hPa NNE 1.6 km/h 6.4 km/h 90 % 0.0 mm
03:37 4.2 °C 2.7 °C 1023.2 hPa North 3.2 km/h 9.7 km/h 90 % 0.0 mm
03:42 4.2 °C 2.7 °C 1023.2 hPa NNW 4.8 km/h 9.7 km/h 90 % 0.0 mm
03:47 4.1 °C 2.6 °C 1023.2 hPa North 4.8 km/h 9.7 km/h 90 % 0.0 mm
03:52 4.0 °C 2.5 °C 1023.2 hPa NNE 4.8 km/h 8.0 km/h 90 % 0.0 mm
03:57 3.9 °C 2.4 °C 1023.2 hPa North 3.2 km/h 6.4 km/h 90 % 0.0 mm
04:02 3.8 °C 2.3 °C 1023.2 hPa Calm   8.0 km/h 90 % 0.0 mm
04:07 3.7 °C 2.2 °C 1023.2 hPa Calm   8.0 km/h 90 % 0.0 mm
04:12 3.5 °C 2.0 °C 1023.2 hPa North 4.8 km/h 9.7 km/h 90 % 0.0 mm
04:17 3.4 °C 2.1 °C 1023.2 hPa NE 3.2 km/h 9.7 km/h 91 % 0.0 mm
04:22 3.4 °C 2.1 °C 1023.2 hPa NNE 1.6 km/h 6.4 km/h 91 % 0.0 mm
04:27 3.4 °C 2.1 °C 1023.2 hPa North 1.6 km/h 6.4 km/h 91 % 0.0 mm
04:32 3.4 °C 2.1 °C 1023.2 hPa NNE 4.8 km/h 8.0 km/h 91 % 0.0 mm
04:37 3.4 °C 2.1 °C 1023.2 hPa Calm   8.0 km/h 91 % 0.0 mm
04:42 3.3 °C 2.0 °C 1023.2 hPa NNW 1.6 km/h 8.0 km/h 91 % 0.0 mm
04:47 3.3 °C 2.0 °C 1023.2 hPa NNE 3.2 km/h 6.4 km/h 91 % 0.0 mm
04:52 3.3 °C 2.0 °C 1023.2 hPa NNE 1.6 km/h 6.4 km/h 91 % 0.0 mm
04:57 3.4 °C 2.1 °C 1023.2 hPa Calm   6.4 km/h 91 % 0.0 mm
05:02 3.3 °C 2.0 °C 1023.2 hPa NNW 1.6 km/h 6.4 km/h 91 % 0.0 mm
05:12 3.1 °C 1.6 °C 1023.2 hPa Calm   4.8 km/h 90 % 0.0 mm
05:17 3.1 °C 1.8 °C 1023.2 hPa Calm   3.2 km/h 91 % 0.0 mm
05:22 2.9 °C 1.6 °C 1023.2 hPa Calm   3.2 km/h 91 % 0.0 mm
05:27 2.9 °C 1.6 °C 1023.2 hPa Calm   3.2 km/h 91 % 0.0 mm
05:32 2.9 °C 1.6 °C 1023.2 hPa Calm   3.2 km/h 91 % 0.0 mm
05:37 2.8 °C 1.5 °C 1023.2 hPa Calm   3.2 km/h 91 % 0.0 mm
05:42 2.7 °C 1.4 °C 1023.6 hPa Calm   3.2 km/h 91 % 0.0 mm
05:52 2.7 °C 1.5 °C 1023.6 hPa Calm   3.2 km/h 92 % 0.0 mm
05:57 2.8 °C 1.6 °C 1023.6 hPa Calm   3.2 km/h 92 % 0.0 mm
06:02 2.7 °C 1.4 °C 1023.2 hPa Calm   3.2 km/h 91 % 0.0 mm
06:12 2.6 °C 1.4 °C 1023.2 hPa Calm   3.2 km/h 92 % 0.0 mm
06:17 2.5 °C 1.3 °C 1023.2 hPa Calm   3.2 km/h 92 % 0.0 mm
06:22 2.6 °C 1.4 °C 1023.2 hPa NNE 1.6 km/h 3.2 km/h 92 % 0.0 mm
06:27 2.6 °C 1.4 °C 1023.2 hPa Calm   3.2 km/h 92 % 0.0 mm
06:32 2.5 °C 1.3 °C 1023.2 hPa North 3.2 km/h 3.2 km/h 92 % 0.0 mm
06:37 2.6 °C 1.4 °C 1023.2 hPa NNE 1.6 km/h 3.2 km/h 92 % 0.0 mm
06:42 2.6 °C 1.4 °C 1023.2 hPa NNE 3.2 km/h 3.2 km/h 92 % 0.0 mm
06:47 2.7 °C 1.5 °C 1023.2 hPa NNE 6.4 km/h 6.4 km/h 92 % 0.0 mm
06:57 2.8 °C 1.6 °C 1023.2 hPa NNE 4.8 km/h 8.0 km/h 92 % 0.0 mm
07:02 2.9 °C 1.7 °C 1023.2 hPa NE 4.8 km/h 9.7 km/h 92 % 0.0 mm
07:07 2.9 °C 1.6 °C 1023.2 hPa NNE 4.8 km/h 9.7 km/h 91 % 0.0 mm
07:12 2.9 °C 1.6 °C 1023.2 hPa NE 3.2 km/h 9.7 km/h 91 % 0.0 mm
07:17 2.7 °C 1.4 °C 1023.2 hPa NNE 4.8 km/h 9.7 km/h 91 % 0.0 mm
07:22 2.7 °C 1.4 °C 1023.2 hPa NE 6.4 km/h 9.7 km/h 91 % 0.0 mm
07:32 2.8 °C 1.6 °C 1023.2 hPa NNE 8.0 km/h 9.7 km/h 92 % 0.0 mm
07:42 2.8 °C 1.5 °C 1023.6 hPa NNE 4.8 km/h 12.9 km/h 91 % 0.0 mm
07:47 2.8 °C 1.5 °C 1023.2 hPa NE 6.4 km/h 12.9 km/h 91 % 0.0 mm
07:52 2.8 °C 1.5 °C 1023.2 hPa NE 8.0 km/h 11.3 km/h 91 % 0.0 mm
07:57 2.7 °C 1.4 °C 1023.6 hPa NNE 1.6 km/h 9.7 km/h 91 % 0.0 mm
08:02 2.7 °C 1.5 °C 1023.6 hPa Calm   9.7 km/h 92 % 0.0 mm
08:12 2.6 °C 1.4 °C 1023.6 hPa Calm   8.0 km/h 92 % 0.0 mm
08:17 2.6 °C 1.4 °C 1023.9 hPa Calm   1.6 km/h 92 % 0.0 mm
08:22 2.7 °C 1.5 °C 1023.6 hPa Calm   1.6 km/h 92 % 0.0 mm
08:27 2.7 °C 1.5 °C 1023.9 hPa NE 1.6 km/h 1.6 km/h 92 % 0.0 mm
08:32 2.8 °C 1.6 °C 1023.9 hPa Calm   4.8 km/h 92 % 0.0 mm
08:37 3.0 °C 1.8 °C 1023.9 hPa NNE 3.2 km/h 4.8 km/h 92 % 0.0 mm
08:42 3.2 °C 2.0 °C 1023.9 hPa NNE 1.6 km/h 6.4 km/h 92 % 0.0 mm
08:47 3.3 °C 2.0 °C 1023.9 hPa NNW 3.2 km/h 6.4 km/h 91 % 0.0 mm
08:52 3.4 °C 2.1 °C 1023.9 hPa North 1.6 km/h 6.4 km/h 91 % 0.0 mm
08:57 3.4 °C 2.1 °C 1023.9 hPa NE 1.6 km/h 6.4 km/h 91 % 0.0 mm
09:02 3.6 °C 2.3 °C 1023.9 hPa NNE 3.2 km/h 6.4 km/h 91 % 0.0 mm
09:12 3.8 °C 2.3 °C 1023.9 hPa NNE 3.2 km/h 9.7 km/h 90 % 0.0 mm
09:17 4.0 °C 2.5 °C 1023.9 hPa Calm   9.7 km/h 90 % 0.0 mm
09:22 4.2 °C 2.7 °C 1023.9 hPa NNE 3.2 km/h 9.7 km/h 90 % 0.0 mm
09:27 4.3 °C 2.6 °C 1023.9 hPa Calm   6.4 km/h 89 % 0.0 mm
09:32 4.6 °C 2.8 °C 1023.9 hPa NNE 3.2 km/h 6.4 km/h 88 % 0.0 mm
09:42 4.8 °C 2.8 °C 1023.9 hPa North 1.6 km/h 8.0 km/h 87 % 0.0 mm
09:52 5.2 °C 2.9 °C 1023.9 hPa NE 4.8 km/h 12.9 km/h 85 % 0.0 mm
09:57 5.4 °C 3.1 °C 1023.9 hPa NE 3.2 km/h 11.3 km/h 85 % 0.0 mm
10:02 5.6 °C 3.3 °C 1023.9 hPa NNE 3.2 km/h 11.3 km/h 85 % 0.0 mm
10:07 5.8 °C 3.3 °C 1023.9 hPa NNE 8.0 km/h 8.0 km/h 84 % 0.0 mm
10:12 5.9 °C 3.2 °C 1023.9 hPa ENE 1.6 km/h 9.7 km/h 83 % 0.0 mm
10:17 6.1 °C 3.4 °C 1023.9 hPa NE 3.2 km/h 11.3 km/h 83 % 0.0 mm
10:22 6.1 °C 3.3 °C 1023.9 hPa NE 3.2 km/h 11.3 km/h 82 % 0.0 mm
10:27 6.2 °C 3.4 °C 1023.9 hPa NE 3.2 km/h 12.9 km/h 82 % 0.0 mm
10:32 6.3 °C 3.3 °C 1023.9 hPa NE 6.4 km/h 12.9 km/h 81 % 0.0 mm
10:37 6.4 °C 3.7 °C 1023.9 hPa NE 1.6 km/h 12.9 km/h 83 % 0.0 mm
10:42 6.7 °C 3.7 °C 1023.9 hPa ENE 9.7 km/h 12.9 km/h 81 % 0.0 mm
10:47 6.7 °C 3.7 °C 1023.6 hPa ENE 6.4 km/h 12.9 km/h 81 % 0.0 mm
10:52 6.8 °C 3.6 °C 1023.6 hPa ENE 11.3 km/h 12.9 km/h 80 % 0.0 mm
10:57 7.0 °C 3.8 °C 1023.6 hPa ENE 8.0 km/h 14.5 km/h 80 % 0.0 mm
11:02 7.1 °C 3.9 °C 1023.6 hPa ENE 3.2 km/h 14.5 km/h 80 % 0.0 mm
11:07 7.3 °C 3.7 °C 1023.6 hPa ENE 8.0 km/h 14.5 km/h 78 % 0.0 mm
11:12 7.5 °C 4.1 °C 1023.6 hPa ENE 8.0 km/h 14.5 km/h 79 % 0.0 mm
11:17 7.6 °C 3.6 °C 1023.6 hPa NE 9.7 km/h 17.7 km/h 76 % 0.0 mm
11:22 7.7 °C 3.9 °C 1023.6 hPa NE 3.2 km/h 17.7 km/h 77 % 0.0 mm
11:27 7.9 °C 3.9 °C 1023.6 hPa NE 3.2 km/h 17.7 km/h 76 % 0.0 mm
11:32 8.1 °C 3.9 °C 1023.2 hPa ENE 6.4 km/h 14.5 km/h 75 % 0.0 mm
11:37 8.3 °C 3.7 °C 1023.2 hPa ENE 8.0 km/h 14.5 km/h 73 % 0.0 mm
11:42 8.4 °C 3.2 °C 1023.2 hPa ENE 9.7 km/h 17.7 km/h 70 % 0.0 mm
11:47 8.5 °C 3.5 °C 1023.2 hPa ENE 12.9 km/h 17.7 km/h 71 % 0.0 mm
11:52 8.6 °C 3.8 °C 1023.2 hPa East 4.8 km/h 17.7 km/h 72 % 0.0 mm
11:57 8.7 °C 3.9 °C 1023.2 hPa NE 4.8 km/h 19.3 km/h 72 % 0.0 mm
12:02 8.8 °C 3.8 °C 1022.9 hPa NNE 11.3 km/h 19.3 km/h 71 % 0.0 mm
12:07 8.8 °C 3.8 °C 1022.9 hPa ENE 8.0 km/h 16.1 km/h 71 % 0.0 mm
12:12 9.1 °C 4.1 °C 1022.9 hPa East 4.8 km/h 16.1 km/h 71 % 0.0 mm
12:17 9.3 °C 3.5 °C 1022.9 hPa NE 12.9 km/h 16.1 km/h 67 % 0.0 mm
12:22 9.5 °C 3.0 °C 1022.9 hPa East 6.4 km/h 16.1 km/h 64 % 0.0 mm
12:32 9.6 °C 2.9 °C 1022.6 hPa SSE 6.4 km/h 19.3 km/h 63 % 0.0 mm
12:42 9.9 °C 3.2 °C 1022.6 hPa ENE 6.4 km/h 16.1 km/h 63 % 0.0 mm
12:47 10.0 °C 2.4 °C 1022.6 hPa ENE 6.4 km/h 17.7 km/h 59 % 0.0 mm
12:52 10.1 °C 2.9 °C 1022.2 hPa East 9.7 km/h 17.7 km/h 61 % 0.0 mm
12:57 10.1 °C 2.4 °C 1022.2 hPa East 4.8 km/h 17.7 km/h 59 % 0.0 mm
13:02 10.2 °C 2.3 °C 1022.2 hPa ENE 8.0 km/h 17.7 km/h 58 % 0.0 mm
13:07 10.2 °C 1.8 °C 1022.2 hPa ENE 8.0 km/h 20.9 km/h 56 % 0.0 mm
13:12 10.3 °C 1.9 °C 1021.9 hPa ENE 6.4 km/h 20.9 km/h 56 % 0.0 mm
13:17 10.4 °C 2.0 °C 1021.9 hPa East 9.7 km/h 20.9 km/h 56 % 0.0 mm
13:22 10.4 °C 1.7 °C 1021.9 hPa ENE 8.0 km/h 20.9 km/h 55 % 0.0 mm
13:27 10.5 °C 2.1 °C 1021.9 hPa East 6.4 km/h 16.1 km/h 56 % 0.0 mm
13:32 10.5 °C 2.1 °C 1021.9 hPa ENE 12.9 km/h 16.1 km/h 56 % 0.0 mm
13:37 10.5 °C 1.8 °C 1021.9 hPa ESE 8.0 km/h 17.7 km/h 55 % 0.0 mm
13:42 10.5 °C 1.8 °C 1021.9 hPa East 11.3 km/h 17.7 km/h 55 % 0.0 mm
13:47 10.5 °C 2.1 °C 1021.9 hPa ENE 1.6 km/h 16.1 km/h 56 % 0.0 mm
13:52 10.7 °C 2.3 °C 1021.9 hPa ENE 6.4 km/h 17.7 km/h 56 % 0.0 mm
13:57 10.7 °C 2.0 °C 1021.6 hPa East 8.0 km/h 17.7 km/h 55 % 0.0 mm
14:02 10.8 °C 2.1 °C 1021.6 hPa NE 1.6 km/h 14.5 km/h 55 % 0.0 mm
14:12 10.8 °C 2.6 °C 1021.6 hPa ENE 8.0 km/h 14.5 km/h 57 % 0.0 mm
14:22 10.8 °C 2.1 °C 1021.6 hPa ENE 11.3 km/h 12.9 km/h 55 % 0.0 mm
14:27 10.8 °C 2.4 °C 1021.6 hPa ENE 3.2 km/h 12.9 km/h 56 % 0.0 mm
14:32 10.9 °C 2.7 °C 1021.6 hPa ENE 3.2 km/h 12.9 km/h 57 % 0.0 mm
14:37 11.1 °C 2.9 °C 1021.6 hPa ENE 8.0 km/h 12.9 km/h 57 % 0.0 mm
14:42 10.9 °C 3.0 °C 1021.6 hPa ENE 8.0 km/h 12.9 km/h 58 % 0.0 mm
14:47 10.9 °C 2.5 °C 1021.6 hPa ESE 6.4 km/h 12.9 km/h 56 % 0.0 mm
14:57 11.0 °C 3.1 °C 1021.2 hPa ENE 6.4 km/h 12.9 km/h 58 % 0.0 mm
15:02 11.1 °C 3.4 °C 1021.2 hPa ENE 3.2 km/h 11.3 km/h 59 % 0.0 mm
15:07 11.1 °C 2.9 °C 1021.2 hPa ENE 4.8 km/h 12.9 km/h 57 % 0.0 mm
15:12 11.0 °C 3.1 °C 1021.2 hPa East 4.8 km/h 12.9 km/h 58 % 0.0 mm
15:17 11.0 °C 3.1 °C 1021.2 hPa ENE 6.4 km/h 12.9 km/h 58 % 0.0 mm
15:22 11.0 °C 3.1 °C 1021.2 hPa ENE 3.2 km/h 17.7 km/h 58 % 0.0 mm
15:27 11.0 °C 3.1 °C 1021.2 hPa ENE 1.6 km/h 17.7 km/h 58 % 0.0 mm
15:32 11.1 °C 3.4 °C 1021.2 hPa ENE 4.8 km/h 11.3 km/h 59 % 0.0 mm
15:37 11.0 °C 3.3 °C 1021.2 hPa East 3.2 km/h 9.7 km/h 59 % 0.0 mm
15:42 11.1 °C 3.4 °C 1021.2 hPa ENE 6.4 km/h 9.7 km/h 59 % 0.0 mm
15:47 11.1 °C 3.4 °C 1021.2 hPa North 1.6 km/h 9.7 km/h 59 % 0.0 mm
15:52 11.2 °C 3.7 °C 1021.2 hPa ENE 1.6 km/h 9.7 km/h 60 % 0.0 mm
16:02 11.1 °C 3.4 °C 1021.2 hPa ENE 6.4 km/h 9.7 km/h 59 % 0.0 mm
16:07 11.0 °C 3.5 °C 1021.2 hPa ENE 4.8 km/h 9.7 km/h 60 % 0.0 mm
16:12 11.0 °C 3.5 °C 1021.2 hPa East 3.2 km/h 9.7 km/h 60 % 0.0 mm
16:17 11.0 °C 3.8 °C 1021.2 hPa ENE 1.6 km/h 9.7 km/h 61 % 0.0 mm
16:22 11.0 °C 3.8 °C 1020.9 hPa ENE 4.8 km/h 9.7 km/h 61 % 0.0 mm
16:27 11.0 °C 3.8 °C 1021.2 hPa Calm   9.7 km/h 61 % 0.0 mm
16:32 10.9 °C 3.4 °C 1021.2 hPa ENE 4.8 km/h 9.7 km/h 60 % 0.0 mm
16:42 10.8 °C 3.8 °C 1020.9 hPa ENE 3.2 km/h 8.0 km/h 62 % 0.0 mm
16:47 10.7 °C 3.7 °C 1020.9 hPa NE 4.8 km/h 6.4 km/h 62 % 0.0 mm
16:52 10.6 °C 3.8 °C 1020.9 hPa NE 8.0 km/h 8.0 km/h 63 % 0.0 mm
16:57 10.5 °C 3.8 °C 1020.9 hPa NE 3.2 km/h 8.0 km/h 63 % 0.0 mm
17:02 10.4 °C 3.7 °C 1020.9 hPa NE 1.6 km/h 8.0 km/h 63 % 0.0 mm
17:12 9.9 °C 3.4 °C 1020.9 hPa NNE 6.4 km/h 8.0 km/h 64 % 0.0 mm
17:22 9.4 °C 3.6 °C 1020.9 hPa NE 4.8 km/h 9.7 km/h 67 % 0.0 mm
17:27 9.2 °C 3.4 °C 1020.9 hPa NNE 6.4 km/h 9.7 km/h 67 % 0.0 mm
17:32 9.0 °C 3.4 °C 1020.9 hPa NE 4.8 km/h 9.7 km/h 68 % 0.0 mm
17:37 8.8 °C 3.4 °C 1020.9 hPa NE 4.8 km/h 9.7 km/h 69 % 0.0 mm
17:42 8.7 °C 3.3 °C 1020.9 hPa ENE 1.6 km/h 8.0 km/h 69 % 0.0 mm
17:47 8.5 °C 3.3 °C 1020.9 hPa NE 4.8 km/h 8.0 km/h 70 % 0.0 mm
17:52 8.4 °C 3.2 °C 1020.9 hPa NE 3.2 km/h 8.0 km/h 70 % 0.0 mm
17:57 8.3 °C 3.4 °C 1020.9 hPa NE 1.6 km/h 8.0 km/h 71 % 0.0 mm
18:02 8.2 °C 3.3 °C 1020.9 hPa NE 3.2 km/h 6.4 km/h 71 % 0.0 mm
18:07 8.1 °C 3.4 °C 1020.9 hPa Calm   4.8 km/h 72 % 0.0 mm
18:12 8.0 °C 3.3 °C 1020.9 hPa NE 1.6 km/h 4.8 km/h 72 % 0.0 mm
18:17 7.8 °C 3.3 °C 1020.9 hPa Calm   4.8 km/h 73 % 0.0 mm
18:22 7.7 °C 3.2 °C 1020.9 hPa NE 3.2 km/h 4.8 km/h 73 % 0.0 mm
18:32 7.2 °C 3.1 °C 1020.5 hPa NE 1.6 km/h 4.8 km/h 75 % 0.0 mm
18:37 7.1 °C 3.2 °C 1020.9 hPa NE 3.2 km/h 4.8 km/h 76 % 0.0 mm
18:42 6.9 °C 3.1 °C 1020.5 hPa NE 4.8 km/h 4.8 km/h 77 % 0.0 mm
18:47 6.9 °C 3.1 °C 1020.5 hPa Calm   4.8 km/h 77 % 0.0 mm
18:52 6.8 °C 3.2 °C 1020.9 hPa Calm   4.8 km/h 78 % 0.0 mm
18:57 6.7 °C 3.1 °C 1020.9 hPa Calm   4.8 km/h 78 % 0.0 mm
19:02 6.5 °C 3.1 °C 1020.9 hPa Calm   1.6 km/h 79 % 0.0 mm
19:07 6.3 °C 2.9 °C 1020.9 hPa Calm   1.6 km/h 79 % 0.0 mm
19:17 5.5 °C 2.8 °C 1020.9 hPa Calm   1.6 km/h 83 % 0.0 mm
19:22 5.4 °C 2.9 °C 1020.9 hPa Calm   1.6 km/h 84 % 0.0 mm
19:27 5.3 °C 2.8 °C 1020.9 hPa Calm   1.6 km/h 84 % 0.0 mm
19:32 5.2 °C 2.9 °C 1020.9 hPa Calm   1.6 km/h 85 % 0.0 mm
19:42 5.4 °C 3.1 °C 1020.9 hPa Calm   1.6 km/h 85 % 0.0 mm
19:47 5.4 °C 2.9 °C 1020.9 hPa Calm   1.6 km/h 84 % 0.0 mm
19:52 5.4 °C 3.1 °C 1020.9 hPa Calm   1.6 km/h 85 % 0.0 mm
19:57 5.3 °C 3.0 °C 1020.9 hPa Calm   1.6 km/h 85 % 0.0 mm
20:07 5.3 °C 3.1 °C 1020.9 hPa Calm   1.6 km/h 86 % 0.0 mm
20:12 5.3 °C 3.1 °C 1020.9 hPa NW 1.6 km/h 1.6 km/h 86 % 0.0 mm
20:17 5.3 °C 3.1 °C 1020.9 hPa Calm   1.6 km/h 86 % 0.0 mm
20:27 5.1 °C 3.1 °C 1020.9 hPa Calm   3.2 km/h 87 % 0.0 mm
20:32 5.0 °C 3.0 °C 1020.9 hPa Calm   1.6 km/h 87 % 0.0 mm
20:37 4.9 °C 3.1 °C 1020.9 hPa Calm   1.6 km/h 88 % 0.0 mm
20:42 4.9 °C 3.1 °C 1020.9 hPa NNW 1.6 km/h 1.6 km/h 88 % 0.0 mm
20:47 4.9 °C 3.1 °C 1020.5 hPa Calm   1.6 km/h 88 % 0.0 mm
20:52 5.1 °C 3.4 °C 1020.5 hPa NE 1.6 km/h 1.6 km/h 89 % 0.0 mm
21:02 5.3 °C 3.3 °C 1020.5 hPa NE 1.6 km/h 6.4 km/h 87 % 0.0 mm
21:07 5.3 °C 3.3 °C 1020.5 hPa NE 1.6 km/h 6.4 km/h 87 % 0.0 mm
21:12 5.3 °C 3.3 °C 1020.5 hPa Calm   6.4 km/h 87 % 0.0 mm
21:17 5.3 °C 3.3 °C 1020.5 hPa Calm   4.8 km/h 87 % 0.0 mm
21:27 5.1 °C 3.3 °C 1020.5 hPa ENE 1.6 km/h   88 % 0.0 mm
21:32 5.1 °C 3.3 °C 1020.5 hPa NE 1.6 km/h 3.2 km/h 88 % 0.0 mm
21:37 5.0 °C 3.2 °C 1020.5 hPa Calm   3.2 km/h 88 % 0.0 mm
21:42 4.9 °C 3.1 °C 1020.5 hPa Calm   3.2 km/h 88 % 0.0 mm
21:47 4.6 °C 2.8 °C 1020.5 hPa Calm   1.6 km/h 88 % 0.0 mm
21:57 4.3 °C 2.6 °C 1020.2 hPa Calm   1.6 km/h 89 % 0.0 mm
22:02 4.2 °C 2.7 °C 1020.2 hPa Calm   1.6 km/h 90 % 0.0 mm
22:12 4.1 °C 2.8 °C 1020.2 hPa Calm   1.6 km/h 91 % 0.0 mm
22:17 4.1 °C 2.6 °C 1020.2 hPa Calm     90 % 0.0 mm
22:22 4.0 °C 2.7 °C 1020.2 hPa Calm     91 % 0.0 mm
22:27 4.2 °C 3.0 °C 1020.2 hPa Calm     92 % 0.0 mm
22:32 4.2 °C 2.9 °C 1019.9 hPa Calm     91 % 0.0 mm
22:37 4.1 °C 2.8 °C 1019.9 hPa Calm   1.6 km/h 91 % 0.0 mm
22:42 4.1 °C 2.8 °C 1019.9 hPa ENE 1.6 km/h 3.2 km/h 91 % 0.0 mm
22:52 3.9 °C 2.6 °C 1019.9 hPa ENE 1.6 km/h 3.2 km/h 91 % 0.0 mm
22:57 3.9 °C 2.7 °C 1019.9 hPa Calm   3.2 km/h 92 % 0.0 mm
23:07 3.7 °C 2.5 °C 1019.9 hPa Calm   3.2 km/h 92 % 0.0 mm
23:27 3.1 °C 1.9 °C 1019.9 hPa Calm   1.6 km/h 92 % 0.0 mm
23:32 3.2 °C 2.2 °C 1019.5 hPa Calm     93 % 0.0 mm
23:37 3.1 °C 2.1 °C 1019.5 hPa Calm     93 % 0.0 mm
23:42 3.0 °C 2.0 °C 1019.5 hPa Calm     93 % 0.0 mm
23:47 3.1 °C 2.2 °C 1019.5 hPa NNE 3.2 km/h 3.2 km/h 94 % 0.0 mm
23:52 2.9 °C 1.9 °C 1019.5 hPa North 1.6 km/h 3.2 km/h 93 % 0.0 mm
Meteo18
Compliments of Weather Underground - 4 mb

Script developed by  Jim McMurry - jmcmurry@mwt.net Adapted for the template by  Wim van der Kuil - Leuven-Template.eu

You find our weather info also at:

European Weather Network

Weather Underground

Equipment we use:

Weather-station
Davis Vue

Weather-program
Meteohub

Weather-server
Raspberry PI 2 B+

Provider
1 and 1

Davis Vue

Meteohub

Raspberry PI 2 B+

1 and 1